Ty Lotus — DSNU7 — position and weather

sailwx.info

Track history (hours):
 
Tides and Currents Weather Stations Pressure Air Temp Water Temp Dewpoint Dewpoint Depression Visibility Wind Speed Wind Dir Waves Ship Positions

Ty Lotus

Last reported at 2015-Jan-24 08:04 UTC. Time now 2015-Jan-31 05:32 UTC.
Position N 34°41' E 134°47'.

Length 82 m; draft 3.9 m.

Type: Cargo ship. MMSI: 440324000.

Date/timePositionNaut miles runAvg speedWind from/ knotsBaromVisibWave heightAir tempDewpointWater temp
2015-Jan-24 08:04N 34°41' E 134°47'1 0.7
2015-Jan-24 06:20N 34°40' E 134°46'0 0.0
2015-Jan-24 05:32N 34°40' E 134°46'0 0.0
2015-Jan-24 04:32N 34°40' E 134°46'0 0.0
2015-Jan-24 03:26N 34°40' E 134°46'0 0.0
2015-Jan-24 02:20N 34°40' E 134°46'0 0.0
2015-Jan-24 01:32N 34°40' E 134°46'0 0.0
2015-Jan-24 00:20N 34°40' E 134°46'0 0.1
2015-Jan-23 23:08N 34°40' E 134°46'0 0.0
2015-Jan-23 22:32N 34°40' E 134°46'0 0.0
2015-Jan-23 21:14N 34°40' E 134°46'0 0.0
2015-Jan-23 14:12N 34°40' E 134°46'0 0.0
2015-Jan-23 13:30N 34°40' E 134°46'0 0.0
2015-Jan-23 12:30N 34°40' E 134°46'0 0.0
2015-Jan-23 11:24N 34°40' E 134°46'4 0.5
2015-Jan-23 04:04N 34°38' E 134°50'5 9.8
2015-Jan-23 03:31N 34°38' E 134°57'1110.5
2015-Jan-23 02:31N 34°35' E 135°09'9 9.3
2015-Jan-23 01:33N 34°33' E 135°20'4 0.1
2015-Jan-21 03:25N 34°32' E 135°24'1 0.2
2015-Jan-20 20:17N 34°31' E 135°23'0 0.0
2015-Jan-20 19:17N 34°31' E 135°23'0 0.0
2015-Jan-20 17:11N 34°31' E 135°23'0 0.0
2015-Jan-20 16:17N 34°31' E 135°23'0 0.0
2015-Jan-20 15:23N 34°31' E 135°23'3 0.3
2015-Jan-20 05:32N 34°33' E 135°22'5 4.9
2015-Jan-20 04:32N 34°38' E 135°24'0 0.0
2015-Jan-20 03:26N 34°38' E 135°24'0 0.0
2015-Jan-20 02:04N 34°38' E 135°24'0 0.0
2015-Jan-20 01:22N 34°38' E 135°24'0 0.0
2015-Jan-20 00:28N 34°38' E 135°24'0 0.0
2015-Jan-19 23:28N 34°38' E 135°24'0 0.0
2015-Jan-19 22:22N 34°38' E 135°24'1 0.7
2015-Jan-19 21:33N 34°38' E 135°24'1 0.6
2015-Jan-19 20:19N 34°37' E 135°23'0 0.0
2015-Jan-19 19:19N 34°37' E 135°23'0 0.0
2015-Jan-19 18:19N 34°37' E 135°23'0 0.0
2015-Jan-19 17:28N 34°37' E 135°23'0 0.0
2015-Jan-19 16:29N 34°37' E 135°23'0 0.0
2015-Jan-19 15:29N 34°37' E 135°23'0 0.0
2015-Jan-19 14:23N 34°37' E 135°23'0 0.0
2015-Jan-19 13:23N 34°37' E 135°23'0 0.0
2015-Jan-19 12:29N 34°37' E 135°23'0 0.0
2015-Jan-19 11:29N 34°37' E 135°23'0 0.0
2015-Jan-19 10:29N 34°37' E 135°23'1 0.6
2015-Jan-19 09:31N 34°37' E 135°23'4 3.1
2015-Jan-19 08:18N 34°40' E 135°25'0 0.0
2015-Jan-19 07:30N 34°40' E 135°25'0 0.0
2015-Jan-19 06:30N 34°40' E 135°25'0 0.0
2015-Jan-19 05:30N 34°40' E 135°25'0 0.0
2015-Jan-19 04:30N 34°40' E 135°25'0 0.0
2015-Jan-19 03:06N 34°40' E 135°25'0 0.0
2015-Jan-19 02:06N 34°40' E 135°25'0 0.0
2015-Jan-19 01:30N 34°40' E 135°25'0 0.0
2015-Jan-19 00:30N 34°40' E 135°25'1 0.7
2015-Jan-18 23:33N 34°40' E 135°25'4 4.0
2015-Jan-18 22:29N 34°37' E 135°22'0 0.1
2015-Jan-18 21:29N 34°37' E 135°21'0 0.0
2015-Jan-18 20:29N 34°37' E 135°21'0 0.0
2015-Jan-18 19:23N 34°37' E 135°21'0 0.0
2015-Jan-18 18:29N 34°37' E 135°21'0 0.0
2015-Jan-18 17:17N 34°37' E 135°21'0 0.0
2015-Jan-18 16:29N 34°37' E 135°21'0 0.0
2015-Jan-18 15:29N 34°37' E 135°21'0 0.0
2015-Jan-18 14:29N 34°37' E 135°21'0 0.0
2015-Jan-18 13:29N 34°37' E 135°22'0 0.0
2015-Jan-18 12:29N 34°37' E 135°22'0 0.0
2015-Jan-18 11:23N 34°37' E 135°22'0 0.0
2015-Jan-18 10:23N 34°37' E 135°22'0 0.0
2015-Jan-18 09:29N 34°37' E 135°22'0 0.0
2015-Jan-18 08:29N 34°37' E 135°22'0 0.0
2015-Jan-18 07:29N 34°37' E 135°22'0 0.0
2015-Jan-18 06:11N 34°37' E 135°22'0 0.0
2015-Jan-18 05:29N 34°37' E 135°22'0 0.0
2015-Jan-18 04:29N 34°37' E 135°22'0 0.1
2015-Jan-18 03:29N 34°37' E 135°22'0 0.0
2015-Jan-18 02:17N 34°37' E 135°22'0 0.1
2015-Jan-18 01:29N 34°37' E 135°21'0 0.0
2015-Jan-18 00:29N 34°37' E 135°21'0 0.0
2015-Jan-17 23:29N 34°37' E 135°21'0 0.0
2015-Jan-17 22:23N 34°37' E 135°21'0 0.0
2015-Jan-17 21:23N 34°37' E 135°21'0 0.1
2015-Jan-17 20:29N 34°37' E 135°22'0 0.1
2015-Jan-17 19:17N 34°37' E 135°22'0 0.0
2015-Jan-17 18:17N 34°37' E 135°22'0 0.0
2015-Jan-17 17:29N 34°37' E 135°22'0 0.0
2015-Jan-17 16:29N 34°37' E 135°22'0 0.0
2015-Jan-17 15:29N 34°37' E 135°22'0 0.0
2015-Jan-17 14:29N 34°37' E 135°22'0 0.0
2015-Jan-17 13:23N 34°37' E 135°22'0 0.0
2015-Jan-17 12:29N 34°37' E 135°22'0 0.0
2015-Jan-17 11:23N 34°37' E 135°22'0 0.4
2015-Jan-17 10:33N 34°36' E 135°21'9 8.7
2015-Jan-17 09:33N 34°35' E 135°11'8 8.4
2015-Jan-17 08:33N 34°37' E 135°01'  
Track history (hours):
 
Tides and Currents Weather Stations Pressure Air Temp Water Temp Dewpoint Dewpoint Depression Visibility Wind Speed Wind Dir Waves Ship Positions

Ty Lotus

Last reported at 2015-Jan-24 08:04 UTC. Time now 2015-Jan-31 05:32 UTC.
Position N 34°41' E 134°47'.

Length 82 m; draft 3.9 m.

Type: Cargo ship. MMSI: 440324000.

Date/timePositionNaut miles runAvg speedWind from/ knotsBaromVisibWave heightAir tempDewpointWater temp
2015-Jan-24 08:04N 34°41' E 134°47'1 0.7
2015-Jan-24 06:20N 34°40' E 134°46'0 0.0
2015-Jan-24 05:32N 34°40' E 134°46'0 0.0
2015-Jan-24 04:32N 34°40' E 134°46'0 0.0
2015-Jan-24 03:26N 34°40' E 134°46'0 0.0
2015-Jan-24 02:20N 34°40' E 134°46'0 0.0
2015-Jan-24 01:32N 34°40' E 134°46'0 0.0
2015-Jan-24 00:20N 34°40' E 134°46'0 0.1
2015-Jan-23 23:08N 34°40' E 134°46'0 0.0
2015-Jan-23 22:32N 34°40' E 134°46'0 0.0
2015-Jan-23 21:14N 34°40' E 134°46'0 0.0
2015-Jan-23 14:12N 34°40' E 134°46'0 0.0
2015-Jan-23 13:30N 34°40' E 134°46'0 0.0
2015-Jan-23 12:30N 34°40' E 134°46'0 0.0
2015-Jan-23 11:24N 34°40' E 134°46'4 0.5
2015-Jan-23 04:04N 34°38' E 134°50'5 9.8
2015-Jan-23 03:31N 34°38' E 134°57'1110.5
2015-Jan-23 02:31N 34°35' E 135°09'9 9.3
2015-Jan-23 01:33N 34°33' E 135°20'4 0.1
2015-Jan-21 03:25N 34°32' E 135°24'1 0.2
2015-Jan-20 20:17N 34°31' E 135°23'0 0.0
2015-Jan-20 19:17N 34°31' E 135°23'0 0.0
2015-Jan-20 17:11N 34°31' E 135°23'0 0.0
2015-Jan-20 16:17N 34°31' E 135°23'0 0.0
2015-Jan-20 15:23N 34°31' E 135°23'3 0.3
2015-Jan-20 05:32N 34°33' E 135°22'5 4.9
2015-Jan-20 04:32N 34°38' E 135°24'0 0.0
2015-Jan-20 03:26N 34°38' E 135°24'0 0.0
2015-Jan-20 02:04N 34°38' E 135°24'0 0.0
2015-Jan-20 01:22N 34°38' E 135°24'0 0.0
2015-Jan-20 00:28N 34°38' E 135°24'0 0.0
2015-Jan-19 23:28N 34°38' E 135°24'0 0.0
2015-Jan-19 22:22N 34°38' E 135°24'1 0.7
2015-Jan-19 21:33N 34°38' E 135°24'1 0.6
2015-Jan-19 20:19N 34°37' E 135°23'0 0.0
2015-Jan-19 19:19N 34°37' E 135°23'0 0.0
2015-Jan-19 18:19N 34°37' E 135°23'0 0.0
2015-Jan-19 17:28N 34°37' E 135°23'0 0.0
2015-Jan-19 16:29N 34°37' E 135°23'0 0.0
2015-Jan-19 15:29N 34°37' E 135°23'0 0.0
2015-Jan-19 14:23N 34°37' E 135°23'0 0.0
2015-Jan-19 13:23N 34°37' E 135°23'0 0.0
2015-Jan-19 12:29N 34°37' E 135°23'0 0.0
2015-Jan-19 11:29N 34°37' E 135°23'0 0.0
2015-Jan-19 10:29N 34°37' E 135°23'1 0.6
2015-Jan-19 09:31N 34°37' E 135°23'4 3.1
2015-Jan-19 08:18N 34°40' E 135°25'0 0.0
2015-Jan-19 07:30N 34°40' E 135°25'0 0.0
2015-Jan-19 06:30N 34°40' E 135°25'0 0.0
2015-Jan-19 05:30N 34°40' E 135°25'0 0.0
2015-Jan-19 04:30N 34°40' E 135°25'0 0.0
2015-Jan-19 03:06N 34°40' E 135°25'0 0.0
2015-Jan-19 02:06N 34°40' E 135°25'0 0.0
2015-Jan-19 01:30N 34°40' E 135°25'0 0.0
2015-Jan-19 00:30N 34°40' E 135°25'1 0.7
2015-Jan-18 23:33N 34°40' E 135°25'4 4.0
2015-Jan-18 22:29N 34°37' E 135°22'0 0.1
2015-Jan-18 21:29N 34°37' E 135°21'0 0.0
2015-Jan-18 20:29N 34°37' E 135°21'0 0.0
2015-Jan-18 19:23N 34°37' E 135°21'0 0.0
2015-Jan-18 18:29N 34°37' E 135°21'0 0.0
2015-Jan-18 17:17N 34°37' E 135°21'0 0.0
2015-Jan-18 16:29N 34°37' E 135°21'0 0.0
2015-Jan-18 15:29N 34°37' E 135°21'0 0.0
2015-Jan-18 14:29N 34°37' E 135°21'0 0.0
2015-Jan-18 13:29N 34°37' E 135°22'0 0.0
2015-Jan-18 12:29N 34°37' E 135°22'0 0.0
2015-Jan-18 11:23N 34°37' E 135°22'0 0.0
2015-Jan-18 10:23N 34°37' E 135°22'0 0.0
2015-Jan-18 09:29N 34°37' E 135°22'0 0.0
2015-Jan-18 08:29N 34°37' E 135°22'0 0.0
2015-Jan-18 07:29N 34°37' E 135°22'0 0.0
2015-Jan-18 06:11N 34°37' E 135°22'0 0.0
2015-Jan-18 05:29N 34°37' E 135°22'0 0.0
2015-Jan-18 04:29N 34°37' E 135°22'0 0.1
2015-Jan-18 03:29N 34°37' E 135°22'0 0.0
2015-Jan-18 02:17N 34°37' E 135°22'0 0.1
2015-Jan-18 01:29N 34°37' E 135°21'0 0.0
2015-Jan-18 00:29N 34°37' E 135°21'0 0.0
2015-Jan-17 23:29N 34°37' E 135°21'0 0.0
2015-Jan-17 22:23N 34°37' E 135°21'0 0.0
2015-Jan-17 21:23N 34°37' E 135°21'0 0.1
2015-Jan-17 20:29N 34°37' E 135°22'0 0.1
2015-Jan-17 19:17N 34°37' E 135°22'0 0.0
2015-Jan-17 18:17N 34°37' E 135°22'0 0.0
2015-Jan-17 17:29N 34°37' E 135°22'0 0.0
2015-Jan-17 16:29N 34°37' E 135°22'0 0.0
2015-Jan-17 15:29N 34°37' E 135°22'0 0.0
2015-Jan-17 14:29N 34°37' E 135°22'0 0.0
2015-Jan-17 13:23N 34°37' E 135°22'0 0.0
2015-Jan-17 12:29N 34°37' E 135°22'0 0.0
2015-Jan-17 11:23N 34°37' E 135°22'0 0.4
2015-Jan-17 10:33N 34°36' E 135°21'9 8.7
2015-Jan-17 09:33N 34°35' E 135°11'8 8.4
2015-Jan-17 08:33N 34°37' E 135°01'  

Dump ship's entire track history